Here is the Quick Look data you requested

The Data originates at the National Weather Service, and is made available here by the UAlbany Department of Atmospheric and Environmental Sciences

Surface Observations

K1V4 171554Z AUTO 08/00 A3024 RMK AO1 SLP244 T00830000=
KBTV 171554Z 18010KT 10SM FEW095 SCT120 SCT200 10/M02 A3025 RMK AO2 SLP247 ACC
 & ACSL ALQDS T01001017=
KDDH 171554Z AUTO 33005KT 10SM CLR 08/M02 A3029 RMK AO2 SLP263 T00831017=
KEFK 171555Z AUTO 15007KT 10SM BKN085 06/M01 A3023 RMK AO2 T00641007=
KMPV 171551Z AUTO 00000KT 10SM CLR 08/M01 A3028 RMK AO2 SLP262 T00781011=
KMVL 171554Z AUTO 18007G14KT 10SM OVC080 09/M02 A3024 RMK AO2 SLP246 T00891017
 TSNO=
KRUT 171556Z AUTO 05006KT 10SM CLR 08/M02 A3028 RMK AO2 SLP276 T00781017 $=
KVSF 171554Z AUTO VRB04KT 10SM CLR 10/M02 A3028 RMK AO2 SLP256 T01001022=